Time;durP1;ratioP1;P1;durP2;ratioP2;P2;SDS_P1;SDS_P2;PMS_P1;PMS_P2;Temp;Humidity;BMP_temperature;BMP_pressure;BME280_temperature;BME280_humidity;BME280_pressure;Samples;Min_cycle;Max_cycle;Signal;HPM_P1;HPM_P2
2023/01/01 00:00:43;;;;;;;;;5.00;2.50;;;;;15.59;56.63;100902.38;5059927;28;45316;-59
2023/01/01 00:03:09;;;;;;;;;4.00;3.75;;;;;15.67;55.27;100911.84;5059949;28;45232;-58
2023/01/01 00:05:37;;;;;;;;;3.75;2.50;;;;;15.58;56.51;100919.22;5059668;28;45166;-58
2023/01/01 00:08:03;;;;;;;;;4.75;4.75;;;;;15.59;55.67;100914.75;5059585;28;46099;-58
2023/01/01 00:10:29;;;;;;;;;7.50;6.50;;;;;15.59;56.04;100920.91;5062480;28;45459;-58
2023/01/01 00:12:55;;;;;;;;;5.00;5.00;;;;;15.60;55.71;100922.66;5078572;28;45265;-58
2023/01/01 00:15:21;;;;;;;;;4.25;4.00;;;;;15.56;56.53;100918.38;5063612;28;45353;-58
2023/01/01 00:17:46;;;;;;;;;7.00;4.50;;;;;15.66;55.48;100916.31;5078613;27;46596;-58
2023/01/01 00:20:13;;;;;;;;;5.75;4.75;;;;;15.69;56.65;100925.94;5063605;28;45224;-58
2023/01/01 00:22:38;;;;;;;;;4.25;4.25;;;;;15.66;55.81;100926.00;5063314;28;45309;-58
2023/01/01 00:25:04;;;;;;;;;4.25;4.00;;;;;15.66;55.69;100918.97;5063281;28;45441;-58
2023/01/01 00:27:30;;;;;;;;;8.50;5.75;;;;;15.63;56.21;100920.84;5062586;28;45993;-58
2023/01/01 00:29:55;;;;;;;;;5.50;3.50;;;;;15.69;55.33;100931.22;5063380;28;45577;-58
2023/01/01 00:32:21;;;;;;;;;5.25;5.00;;;;;15.71;55.90;100929.38;5063129;28;45593;-58
2023/01/01 00:34:46;;;;;;;;;4.75;3.75;;;;;15.68;56.03;100922.41;5063244;28;45255;-58
2023/01/01 00:37:13;;;;;;;;;10.25;8.75;;;;;15.71;55.16;100924.97;5062741;28;46184;-58
2023/01/01 00:39:39;;;;;;;;;3.00;3.00;;;;;15.73;55.81;100923.13;5063170;28;45387;-58
2023/01/01 00:42:04;;;;;;;;;0.50;0.50;;;;;15.73;55.39;100919.59;5062664;28;45395;-58
2023/01/01 00:44:29;;;;;;;;;4.00;4.00;;;;;15.73;56.63;100920.47;5063028;27;45353;-58
2023/01/01 00:46:55;;;;;;;;;8.25;5.25;;;;;15.70;56.86;100912.63;5078495;28;47209;-58
2023/01/01 00:49:20;;;;;;;;;6.25;5.50;;;;;15.71;56.71;100917.03;5062945;28;45279;-58
2023/01/01 00:51:45;;;;;;;;;5.00;4.50;;;;;15.72;55.93;100916.09;5062606;28;45252;-58
2023/01/01 00:54:12;;;;;;;;;4.75;4.75;;;;;15.70;57.43;100920.56;5062911;28;45312;-58
2023/01/01 00:56:37;;;;;;;;;4.75;4.75;;;;;15.64;57.59;100906.69;5062513;28;46059;-58
2023/01/01 00:59:02;;;;;;;;;7.50;4.75;;;;;15.71;56.35;100916.13;5062476;28;45327;-58
2023/01/01 01:01:28;;;;;;;;;6.50;6.00;;;;;15.73;55.83;100922.25;5062749;28;45293;-58
2023/01/01 01:03:53;;;;;;;;;6.50;4.75;;;;;15.73;55.97;100919.59;5062790;28;45232;-58
2023/01/01 01:06:20;;;;;;;;;6.00;6.00;;;;;15.74;55.89;100913.41;5062485;28;45367;-58
2023/01/01 01:08:46;;;;;;;;;5.00;4.25;;;;;15.77;55.90;100913.28;5062622;28;45447;-58
2023/01/01 01:11:17;;;;;;;;;8.25;7.50;;;;;15.74;55.94;100919.56;5062357;28;45318;-58
2023/01/01 01:13:44;;;;;;;;;6.75;6.75;;;;;15.75;55.29;100912.50;5062498;28;45382;-58
2023/01/01 01:16:18;;;;;;;;;6.75;4.25;;;;;15.80;55.61;100909.66;5062317;28;45250;-58
2023/01/01 01:18:43;;;;;;;;;4.25;3.25;;;;;15.78;56.03;100912.38;5062309;28;45286;-58
2023/01/01 01:21:10;;;;;;;;;5.25;5.25;;;;;15.80;55.43;100917.63;5061324;28;45244;-58
2023/01/01 01:23:36;;;;;;;;;6.75;4.00;;;;;15.82;56.42;100916.69;5062587;28;45359;-58
2023/01/01 01:26:10;;;;;;;;;7.00;5.00;;;;;15.81;55.19;100917.59;5061816;28;46168;-58
2023/01/01 01:28:35;;;;;;;;;7.00;4.25;;;;;15.73;57.67;100923.13;5053608;28;45357;-58
2023/01/01 01:31:01;;;;;;;;;5.75;5.00;;;;;15.82;56.22;100919.31;5062166;28;45326;-58
2023/01/01 01:33:26;;;;;;;;;5.00;5.00;;;;;15.81;56.09;100936.13;5062144;28;45307;-58
2023/01/01 01:35:51;;;;;;;;;6.50;5.75;;;;;15.83;55.90;100954.66;5062003;28;45402;-58
2023/01/01 01:38:17;;;;;;;;;5.00;5.00;;;;;15.84;56.31;100943.16;5062173;28;45291;-58
2023/01/01 01:40:43;;;;;;;;;9.00;6.75;;;;;15.83;56.17;100939.63;5062216;28;45371;-58
2023/01/01 01:43:21;;;;;;;;;6.50;6.50;;;;;15.84;56.47;100925.44;5061601;28;45461;-58
2023/01/01 01:45:47;;;;;;;;;5.00;5.00;;;;;15.88;55.68;100939.47;5061868;27;45379;-58
2023/01/01 01:48:13;;;;;;;;;5.50;5.50;;;;;15.84;56.47;100944.00;5077478;27;45268;-58
2023/01/01 01:50:41;;;;;;;;;6.25;5.75;;;;;15.83;56.22;100958.16;5062221;28;45146;-59
2023/01/01 01:53:11;;;;;;;;;7.25;4.75;;;;;15.85;56.50;100971.38;5061719;28;45340;-58
2023/01/01 01:55:42;;;;;;;;;6.75;6.75;;;;;15.85;55.89;100972.25;5061882;28;47019;-58
2023/01/01 01:58:10;;;;;;;;;7.50;6.00;;;;;15.84;56.95;100965.19;5061406;28;45376;-58
2023/01/01 02:00:35;;;;;;;;;8.25;7.25;;;;;15.86;56.14;100966.03;5062059;28;45273;-58
2023/01/01 02:03:00;;;;;;;;;9.25;6.50;;;;;15.88;56.28;100956.22;5061584;28;45164;-58
2023/01/01 02:05:27;;;;;;;;;10.00;6.00;;;;;15.88;56.44;100966.81;5061766;28;45248;-59
2023/01/01 02:07:54;;;;;;;;;7.25;7.25;;;;;15.89;56.77;100984.47;5061917;28;45153;-58
2023/01/01 02:10:19;;;;;;;;;5.00;5.00;;;;;15.83;57.34;100963.47;5077540;28;45220;-58
2023/01/01 02:12:44;;;;;;;;;4.25;4.25;;;;;15.84;56.65;100969.66;5061148;28;45421;-58
2023/01/01 02:15:10;;;;;;;;;9.75;8.00;;;;;15.85;56.48;100974.88;5061706;28;45931;-58
2023/01/01 02:18:10;;;;;;;;;7.50;6.00;;;;;15.83;56.76;100973.22;5061751;28;46033;-58
2023/01/01 02:21:07;;;;;;;;;9.50;8.25;;;;;15.79;56.92;100985.66;5061379;28;45226;-58
2023/01/01 02:23:53;;;;;;;;;11.00;8.00;;;;;15.80;56.78;101007.69;5061586;28;45227;-58
2023/01/01 02:26:41;;;;;;;;;6.50;4.00;;;;;15.84;56.30;100986.41;5061008;28;46235;-58
2023/01/01 02:29:06;;;;;;;;;7.00;5.25;;;;;15.82;56.88;100988.22;5061266;28;45400;-58
2023/01/01 02:31:39;;;;;;;;;7.00;5.50;;;;;15.84;56.29;100994.34;5061466;28;45374;-58
2023/01/01 02:34:10;;;;;;;;;9.50;6.00;;;;;15.83;56.70;100987.31;5060973;28;45169;-58
2023/01/01 02:36:43;;;;;;;;;8.50;7.75;;;;;15.70;57.64;100992.09;5076793;28;45377;-58
2023/01/01 02:39:10;;;;;;;;;8.50;6.00;;;;;15.70;58.04;100996.56;5076744;28;45406;-58
2023/01/01 02:41:40;;;;;;;;;7.00;3.75;;;;;15.75;57.58;101003.44;5076774;28;45265;-58
2023/01/01 02:44:06;;;;;;;;;6.00;5.75;;;;;15.74;56.65;101014.94;5061056;28;45415;-58
2023/01/01 02:46:33;;;;;;;;;5.50;3.75;;;;;15.81;56.61;100999.72;5060928;28;45417;-58
2023/01/01 02:48:58;;;;;;;;;5.00;5.00;;;;;15.80;56.56;101045.69;5061096;28;45435;-58
2023/01/01 02:51:36;;;;;;;;;8.25;6.50;;;;;15.79;56.89;101006.00;5060754;28;45458;-58
2023/01/01 02:54:04;;;;;;;;;10.75;5.75;;;;;15.79;56.54;101012.16;5061382;28;45236;-59
2023/01/01 02:56:35;;;;;;;;;6.50;5.00;;;;;15.71;57.48;101024.75;5060617;28;46480;-58
2023/01/01 03:02:10;;;;;;;;;7.00;6.25;;;;;15.65;58.38;101017.03;5060864;28;45391;-58
2023/01/01 03:04:48;;;;;;;;;6.00;5.25;;;;;15.65;57.53;101014.38;5076323;27;45190;-58
2023/01/01 03:07:32;;;;;;;;;9.00;6.00;;;;;15.69;57.39;101023.94;5060883;28;45388;-58
2023/01/01 03:10:14;;;;;;;;;8.00;4.75;;;;;15.69;57.44;101053.94;5060630;28;45457;-58
2023/01/01 03:12:53;;;;;;;;;7.25;5.75;;;;;15.60;57.81;101017.16;5060272;28;45363;-58
2023/01/01 03:15:24;;;;;;;;;8.25;6.50;;;;;15.66;57.18;101016.09;5060754;28;45367;-58
2023/01/01 03:18:00;;;;;;;;;9.50;5.50;;;;;15.62;57.55;101011.81;5060428;28;45293;-58
2023/01/01 03:20:30;;;;;;;;;5.75;5.75;;;;;15.63;57.87;101010.91;5060481;28;45260;-59
2023/01/01 03:23:01;;;;;;;;;5.00;5.00;;;;;15.57;58.17;101002.22;5060565;28;45518;-58
2023/01/01 03:25:37;;;;;;;;;5.25;5.25;;;;;15.54;58.50;101020.84;5060524;28;45320;-58
2023/01/01 03:28:11;;;;;;;;;4.50;4.25;;;;;15.60;58.03;101012.72;5055606;28;46015;-58
2023/01/01 03:30:39;;;;;;;;;4.50;4.50;;;;;15.56;58.25;101021.69;5076045;28;45853;-58
2023/01/01 03:33:11;;;;;;;;;4.00;3.00;;;;;15.62;57.60;101022.41;5060455;28;45274;-58
2023/01/01 03:35:47;;;;;;;;;8.25;8.25;;;;;15.59;58.13;101018.91;5060191;27;45429;-58
2023/01/01 03:38:18;;;;;;;;;9.25;5.00;;;;;15.61;58.02;101037.44;5075875;28;48231;-58
2023/01/01 03:40:47;;;;;;;;;9.25;7.00;;;;;15.58;57.60;101040.16;5060329;28;45224;-59
2023/01/01 03:43:35;;;;;;;;;7.00;3.00;;;;;15.60;57.38;101030.41;5075531;27;45422;-58
2023/01/01 03:46:03;;;;;;;;;3.25;3.25;;;;;15.59;57.66;101037.47;5075832;28;45403;-58
2023/01/01 03:48:54;;;;;;;;;10.50;8.25;;;;;15.50;58.36;101040.41;5075620;28;48068;-58
2023/01/01 03:51:22;;;;;;;;;9.50;8.00;;;;;15.62;57.79;101047.09;5059954;27;45347;-58
2023/01/01 03:53:52;;;;;;;;;6.25;5.00;;;;;15.60;57.87;101030.41;5075758;28;45429;-58
2023/01/01 03:56:29;;;;;;;;;7.50;6.00;;;;;15.59;57.88;101037.47;5075547;28;45322;-58
2023/01/01 03:59:05;;;;;;;;;6.50;6.00;;;;;15.57;57.86;101041.06;5059859;28;45335;-58
2023/01/01 04:01:39;;;;;;;;;10.25;5.50;;;;;15.58;57.88;101032.22;5059876;28;45309;-58
2023/01/01 04:04:06;;;;;;;;;6.25;4.50;;;;;15.56;58.07;101047.31;5060262;28;45314;-58
2023/01/01 04:06:32;;;;;;;;;9.75;7.25;;;;;15.48;58.75;101052.81;5075470;27;45553;-58
2023/01/01 04:09:00;;;;;;;;;9.75;6.00;;;;;15.55;57.84;101040.28;5059860;28;45176;-58
2023/01/01 04:14:26;;;;;;;;;8.75;7.25;;;;;15.49;58.61;101059.84;5060019;28;45509;-58
2023/01/01 04:16:51;;;;;;;;;8.50;6.00;;;;;15.51;58.19;101065.09;5059770;28;45399;-58
2023/01/01 04:19:17;;;;;;;;;6.50;5.50;;;;;15.40;58.97;101058.34;5059632;28;45359;-59
2023/01/01 04:21:42;;;;;;;;;6.75;5.50;;;;;15.44;58.70;101056.47;5059989;28;45477;-58
2023/01/01 04:24:08;;;;;;;;;5.50;2.25;;;;;15.47;58.26;101056.41;5059480;28;45255;-58
2023/01/01 04:26:34;;;;;;;;;7.50;5.75;;;;;15.47;58.13;101058.16;5059358;28;45475;-58
2023/01/01 04:28:59;;;;;;;;;6.00;4.75;;;;;15.47;58.79;101064.34;5056361;28;46182;-58
2023/01/01 04:31:24;;;;;;;;;6.00;4.75;;;;;15.45;58.46;101068.81;5059598;28;45173;-58
2023/01/01 04:33:53;;;;;;;;;6.25;4.00;;;;;15.45;58.52;101074.09;5059891;28;45181;-58
2023/01/01 04:36:18;;;;;;;;;6.75;5.75;;;;;15.42;58.68;101074.19;5059611;28;45284;-58
2023/01/01 04:38:44;;;;;;;;;6.25;5.50;;;;;15.41;58.37;101096.28;5059425;28;45404;-58
2023/01/01 04:41:09;;;;;;;;;9.00;5.00;;;;;15.40;58.86;101084.81;5059390;28;45375;-58
2023/01/01 04:43:34;;;;;;;;;9.00;6.00;;;;;15.42;58.81;101092.72;5059258;27;45344;-58
2023/01/01 04:46:03;;;;;;;;;6.75;6.75;;;;;15.39;58.87;101082.22;5059721;28;45393;-58
2023/01/01 04:48:30;;;;;;;;;4.50;3.75;;;;;15.42;58.93;101090.06;5074862;27;45436;-58
2023/01/01 04:51:00;;;;;;;;;7.50;5.50;;;;;15.37;58.99;101084.91;5059496;28;45166;-58
2023/01/01 04:53:29;;;;;;;;;7.50;6.25;;;;;15.41;59.04;101075.97;5074868;27;45514;-58
2023/01/01 04:55:55;;;;;;;;;4.75;4.75;;;;;15.41;58.67;101086.56;5060924;28;45240;-58
2023/01/01 04:58:20;;;;;;;;;9.25;5.50;;;;;15.37;59.27;101090.22;5061043;27;46664;-58
2023/01/01 05:00:50;;;;;;;;;2.75;2.75;;;;;15.35;58.69;101084.09;5062947;28;45520;-58
2023/01/01 05:03:16;;;;;;;;;4.50;4.50;;;;;15.35;58.58;101080.59;5061467;27;45333;-58
2023/01/01 05:05:42;;;;;;;;;7.50;3.75;;;;;15.34;58.86;101092.06;5062600;28;45217;-58
2023/01/01 05:08:08;;;;;;;;;4.50;4.50;;;;;15.35;59.02;101091.19;5062537;28;45521;-59
2023/01/01 05:10:33;;;;;;;;;8.25;6.75;;;;;15.33;59.05;101103.56;5062622;28;45248;-58
2023/01/01 05:12:59;;;;;;;;;8.00;3.75;;;;;15.28;59.44;101091.34;5077792;28;45183;-58
2023/01/01 05:15:24;;;;;;;;;6.00;4.50;;;;;15.28;59.31;101087.81;5062592;28;45217;-58
2023/01/01 05:17:50;;;;;;;;;6.25;4.50;;;;;15.23;59.97;101098.56;5077963;27;45299;-58
2023/01/01 05:20:15;;;;;;;;;7.75;6.25;;;;;15.20;59.66;101113.66;5078142;28;45278;-59
2023/01/01 05:22:41;;;;;;;;;12.00;7.25;;;;;15.25;59.22;101109.09;5062577;28;45529;-59
2023/01/01 05:25:06;;;;;;;;;5.75;5.50;;;;;15.22;60.65;101120.63;5062400;28;45282;-58
2023/01/01 05:27:32;;;;;;;;;8.75;5.75;;;;;15.18;60.11;101128.69;5061826;28;47103;-58
2023/01/01 05:29:57;;;;;;;;;5.50;3.50;;;;;15.14;60.36;101124.41;5062447;28;45328;-58
2023/01/01 05:32:23;;;;;;;;;6.25;6.25;;;;;15.16;60.23;101125.25;5062343;28;45533;-59
2023/01/01 05:34:49;;;;;;;;;7.00;4.00;;;;;15.13;59.82;101131.44;5062373;28;45353;-58
2023/01/01 05:37:14;;;;;;;;;8.25;7.75;;;;;15.19;59.57;101136.59;5062148;28;46725;-58
2023/01/01 05:39:39;;;;;;;;;7.00;7.00;;;;;15.20;59.39;101140.13;5062267;28;45337;-58
2023/01/01 05:42:04;;;;;;;;;8.50;7.25;;;;;15.21;59.73;101148.00;5061992;28;45450;-58
2023/01/01 05:44:30;;;;;;;;;6.50;3.00;;;;;15.18;59.86;101158.69;5062215;28;45459;-58
2023/01/01 05:46:56;;;;;;;;;4.25;4.25;;;;;15.21;59.38;101145.38;5077656;27;46687;-58
2023/01/01 05:49:21;;;;;;;;;6.50;4.25;;;;;15.19;60.10;101159.56;5062149;28;45207;-58
2023/01/01 05:51:46;;;;;;;;;8.00;5.00;;;;;15.16;59.50;101163.16;5077435;28;45517;-58
2023/01/01 05:54:12;;;;;;;;;4.50;3.75;;;;;15.14;60.02;101161.47;5062256;28;45409;-59
2023/01/01 05:56:46;;;;;;;;;5.50;4.50;;;;;15.14;59.57;101154.38;5061439;28;45306;-58
2023/01/01 05:59:12;;;;;;;;;5.50;5.50;;;;;15.13;60.32;101151.78;5061985;28;45454;-58
2023/01/01 06:01:37;;;;;;;;;5.00;5.00;;;;;15.10;60.14;101155.38;5061785;28;45192;-58
2023/01/01 06:04:03;;;;;;;;;7.00;6.75;;;;;15.03;60.36;101159.09;5061906;28;45538;-58
2023/01/01 06:06:31;;;;;;;;;8.50;6.00;;;;;15.04;60.27;101174.06;5061556;28;46260;-58
2023/01/01 06:09:00;;;;;;;;;10.25;6.25;;;;;15.09;60.28;101162.47;5061386;28;45346;-58
2023/01/01 06:11:26;;;;;;;;;9.00;5.00;;;;;15.09;60.43;101154.53;5061564;28;45303;-58
2023/01/01 06:13:53;;;;;;;;;5.00;3.50;;;;;15.10;60.45;101160.66;5077176;27;45297;-58
2023/01/01 06:16:19;;;;;;;;;5.25;4.50;;;;;15.10;60.43;101168.59;5061476;28;46014;-58
2023/01/01 06:18:45;;;;;;;;;6.50;5.75;;;;;15.05;60.63;101152.84;5061709;28;45177;-58
2023/01/01 06:21:12;;;;;;;;;8.00;6.00;;;;;15.03;60.50;101149.38;5061476;28;45569;-58
2023/01/01 06:23:38;;;;;;;;;7.00;4.00;;;;;14.99;60.75;101158.28;5077202;27;45487;-58
2023/01/01 06:26:12;;;;;;;;;5.50;4.00;;;;;15.01;60.17;101142.41;5060973;28;46321;-58
2023/01/01 06:28:39;;;;;;;;;6.50;5.25;;;;;14.98;60.49;101139.81;5053305;28;45403;-58
2023/01/01 06:31:07;;;;;;;;;7.00;5.00;;;;;14.93;61.19;101150.50;5061283;28;45423;-58
2023/01/01 06:33:32;;;;;;;;;6.25;6.25;;;;;15.00;61.23;101132.72;5061220;28;45166;-58
2023/01/01 06:36:01;;;;;;;;;5.25;5.00;;;;;14.91;61.87;101147.91;5061015;28;46100;-58
2023/01/01 06:38:29;;;;;;;;;7.25;4.25;;;;;14.84;62.03;101143.72;5076843;27;45340;-58
2023/01/01 06:40:59;;;;;;;;;4.75;4.75;;;;;14.84;62.36;101130.47;5061111;28;45361;-58
2023/01/01 06:43:25;;;;;;;;;4.75;4.50;;;;;14.82;61.65;101127.00;5060800;28;45198;-58
2023/01/01 06:46:00;;;;;;;;;7.25;5.25;;;;;14.83;61.56;101141.97;5061165;28;46033;-58
2023/01/01 06:48:28;;;;;;;;;7.25;6.00;;;;;14.79;61.88;101150.88;5061082;28;45254;-58
2023/01/01 06:50:53;;;;;;;;;6.25;4.25;;;;;14.80;61.90;101149.97;5076841;27;45280;-58
2023/01/01 06:53:22;;;;;;;;;6.75;5.00;;;;;14.85;61.54;101160.44;5076174;28;45186;-58
2023/01/01 06:55:48;;;;;;;;;7.25;5.75;;;;;14.79;62.77;101190.53;5061006;28;45471;-58
2023/01/01 06:58:14;;;;;;;;;4.50;3.25;;;;;14.76;62.33;101153.59;5060476;28;45453;-58
2023/01/01 07:00:39;;;;;;;;;5.50;4.25;;;;;14.74;61.95;101151.00;5061156;28;45252;-58
2023/01/01 07:03:05;;;;;;;;;3.50;3.50;;;;;14.75;62.04;101160.69;5060890;28;45401;-58
2023/01/01 07:05:30;;;;;;;;;6.75;4.75;;;;;14.74;61.77;101158.94;5060880;28;45585;-58
2023/01/01 07:07:55;;;;;;;;;4.25;4.00;;;;;14.75;62.14;101170.38;5059487;27;45183;-58
2023/01/01 07:10:21;;;;;;;;;9.00;5.25;;;;;14.76;61.98;101182.69;5061065;27;45414;-58
2023/01/01 07:12:46;;;;;;;;;8.50;5.50;;;;;14.72;61.77;101181.91;5075768;28;45509;-58
2023/01/01 07:15:11;;;;;;;;;5.50;5.50;;;;;14.79;61.49;101187.91;5060844;28;46388;-58
2023/01/01 07:17:37;;;;;;;;;7.75;4.50;;;;;14.86;61.20;101192.13;5060659;28;45284;-58
2023/01/01 07:20:02;;;;;;;;;6.75;3.50;;;;;14.88;61.14;101187.69;5059962;28;45775;-58
2023/01/01 07:22:28;;;;;;;;;6.00;5.25;;;;;14.84;61.62;101190.44;5060562;28;45505;-58
2023/01/01 07:24:53;;;;;;;;;3.25;3.25;;;;;14.77;61.41;101195.03;5060756;28;45388;-58
2023/01/01 07:27:18;;;;;;;;;5.25;4.25;;;;;14.85;61.40;101197.47;5059978;28;45311;-58
2023/01/01 07:29:44;;;;;;;;;8.75;4.75;;;;;14.83;61.51;101205.47;5076368;27;45355;-58
2023/01/01 07:32:13;;;;;;;;;10.25;4.00;;;;;14.85;61.16;101214.22;5060266;28;45263;-58
2023/01/01 07:34:38;;;;;;;;;6.00;6.00;;;;;14.80;61.22;101208.16;5076206;28;48097;-58
2023/01/01 07:37:04;;;;;;;;;5.50;4.75;;;;;14.85;61.17;101213.34;5060263;28;45312;-58
2023/01/01 07:39:29;;;;;;;;;5.75;5.50;;;;;14.79;61.80;101217.88;5059272;27;45370;-58
2023/01/01 07:41:54;;;;;;;;;5.50;4.25;;;;;14.86;60.98;101230.97;5059960;28;45216;-58
2023/01/01 07:44:20;;;;;;;;;5.50;5.50;;;;;14.84;61.15;101233.66;5060429;28;46952;-58
2023/01/01 07:46:45;;;;;;;;;5.25;5.25;;;;;14.84;60.92;101232.78;5075792;28;45598;-58
2023/01/01 07:49:11;;;;;;;;;4.00;4.00;;;;;14.83;60.85;101228.38;5060592;28;45402;-58
2023/01/01 07:51:36;;;;;;;;;4.50;4.25;;;;;14.86;61.36;101236.25;5059839;28;45350;-58
2023/01/01 07:54:01;;;;;;;;;5.00;4.00;;;;;14.78;61.44;101231.16;5060010;28;46126;-58
2023/01/01 07:56:29;;;;;;;;;7.50;5.75;;;;;14.74;61.78;101237.41;5075132;27;45229;-58
2023/01/01 07:58:54;;;;;;;;;7.75;5.25;;;;;14.81;60.94;101231.06;5075999;27;45405;-57
2023/01/01 08:01:20;;;;;;;;;9.75;9.25;;;;;14.82;60.84;101246.03;5059728;28;45303;-57
2023/01/01 08:03:50;;;;;;;;;7.50;6.50;;;;;14.82;60.88;101239.88;5075639;28;45906;-57
2023/01/01 08:06:16;;;;;;;;;6.25;6.25;;;;;14.84;61.10;101244.25;5060002;28;45528;-58
2023/01/01 08:08:41;;;;;;;;;7.75;3.50;;;;;14.78;61.51;101260.25;5060073;28;45297;-57
2023/01/01 08:11:07;;;;;;;;;8.75;4.75;;;;;14.73;61.68;101260.38;5059603;28;45335;-57
2023/01/01 08:13:33;;;;;;;;;7.00;5.50;;;;;14.77;61.17;101263.81;5059734;28;45401;-57
2023/01/01 08:15:59;;;;;;;;;5.00;3.50;;;;;14.79;61.49;101268.16;5075119;28;45380;-57
2023/01/01 08:18:24;;;;;;;;;7.75;5.50;;;;;14.74;62.00;101264.75;5060218;28;45458;-57
2023/01/01 08:20:50;;;;;;;;;6.75;6.75;;;;;14.68;61.86;101269.28;5060348;27;45390;-57
2023/01/01 08:23:15;;;;;;;;;8.25;4.75;;;;;14.73;61.75;101270.06;5059972;28;45828;-58
2023/01/01 08:25:40;;;;;;;;;6.25;3.75;;;;;14.77;61.46;101283.19;5061549;28;45372;-58
2023/01/01 08:28:06;;;;;;;;;7.00;4.00;;;;;14.81;61.15;101285.78;5059562;28;45431;-57
2023/01/01 08:30:31;;;;;;;;;5.50;5.00;;;;;14.74;61.62;101291.22;5060643;28;45136;-58
2023/01/01 08:32:57;;;;;;;;;7.25;4.25;;;;;14.73;61.16;101284.16;5063107;28;45445;-57
2023/01/01 08:35:22;;;;;;;;;5.75;4.50;;;;;14.80;61.16;101298.13;5063121;28;45256;-58
2023/01/01 08:37:47;;;;;;;;;5.25;4.75;;;;;14.84;61.01;101298.91;5078887;28;45338;-57
2023/01/01 08:40:13;;;;;;;;;6.50;3.50;;;;;14.85;61.00;101301.53;5063060;28;45246;-57
2023/01/01 08:42:39;;;;;;;;;5.50;5.50;;;;;14.79;61.63;101301.66;5062593;28;46089;-58
2023/01/01 08:45:05;;;;;;;;;7.75;6.25;;;;;14.75;61.58;101300.00;5078546;28;46008;-58
2023/01/01 08:47:30;;;;;;;;;8.00;7.00;;;;;14.79;61.44;101299.91;5063004;28;45477;-57
2023/01/01 08:49:57;;;;;;;;;4.25;3.50;;;;;14.80;61.54;101298.13;5078491;28;45461;-57
2023/01/01 08:52:22;;;;;;;;;6.00;5.75;;;;;14.83;61.21;101305.09;5062437;28;46138;-57
2023/01/01 08:54:47;;;;;;;;;9.00;6.75;;;;;14.74;61.62;101293.84;5062682;28;45327;-57
2023/01/01 08:57:13;;;;;;;;;6.75;4.75;;;;;14.77;61.35;101300.84;5062837;28;45441;-58
2023/01/01 08:59:38;;;;;;;;;6.00;5.00;;;;;14.81;61.25;101304.28;5062683;28;45332;-58
2023/01/01 09:02:05;;;;;;;;;7.00;4.50;;;;;14.83;61.28;101299.81;5062858;28;45458;-57
2023/01/01 09:04:30;;;;;;;;;6.25;5.75;;;;;14.81;61.26;101291.06;5062418;28;45264;-58
2023/01/01 09:06:55;;;;;;;;;6.25;5.75;;;;;14.79;61.44;101288.44;5062967;28;45345;-58
2023/01/01 09:09:21;;;;;;;;;7.25;6.50;;;;;14.78;61.47;101297.31;5062569;28;45586;-58
2023/01/01 09:11:51;;;;;;;;;5.75;4.75;;;;;14.72;62.06;101298.28;5077608;27;46982;-58
2023/01/01 09:14:16;;;;;;;;;10.50;7.25;;;;;14.70;61.66;101283.38;5062359;28;45355;-58
2023/01/01 09:16:42;;;;;;;;;4.00;3.75;;;;;14.77;61.86;101279.69;5062762;28;45330;-58
2023/01/01 09:19:07;;;;;;;;;6.00;6.00;;;;;14.77;61.75;101272.59;5062443;28;45310;-58
2023/01/01 09:21:32;;;;;;;;;5.00;5.00;;;;;14.75;61.68;101269.13;5062352;28;45307;-58
2023/01/01 09:23:58;;;;;;;;;5.00;3.50;;;;;14.75;61.71;101271.78;5077839;27;45343;-58
2023/01/01 09:26:23;;;;;;;;;4.50;4.50;;;;;14.78;61.99;101281.44;5062144;28;45381;-58
2023/01/01 09:28:49;;;;;;;;;8.50;6.00;;;;;14.77;61.52;101283.19;5062308;28;45438;-58
2023/01/01 09:31:15;;;;;;;;;5.50;5.50;;;;;14.77;62.08;101277.03;5062255;28;45366;-58
2023/01/01 09:33:40;;;;;;;;;4.50;4.50;;;;;14.79;61.85;101269.91;5062164;28;45299;-58
2023/01/01 09:36:27;;;;;;;;;7.25;4.25;;;;;14.80;61.86;101266.38;5062474;28;45695;-58
2023/01/01 09:38:54;;;;;;;;;7.75;6.25;;;;;14.80;62.33;101266.38;5062352;28;45255;-58
2023/01/01 09:41:45;;;;;;;;;4.50;4.25;;;;;14.69;62.43;101250.75;5061097;28;45430;-58
2023/01/01 09:44:29;;;;;;;;;6.25;4.75;;;;;14.79;61.73;101262.88;5061693;28;45276;-58
2023/01/01 09:47:00;;;;;;;;;9.00;7.00;;;;;14.72;62.05;101278.91;5061994;28;45318;-58
2023/01/01 09:49:41;;;;;;;;;12.00;5.75;;;;;14.75;62.14;101262.97;5061903;27;45459;-58
2023/01/01 09:52:13;;;;;;;;;8.25;6.50;;;;;14.77;62.18;101266.44;5061385;28;45485;-58
2023/01/01 09:55:08;;;;;;;;;6.00;4.50;;;;;14.83;61.61;101281.28;5061552;28;45521;-58
2023/01/01 09:57:33;;;;;;;;;11.00;7.50;;;;;14.77;61.86;101279.69;5058583;28;45639;-58
2023/01/01 09:59:59;;;;;;;;;6.50;6.50;;;;;14.81;61.75;101296.34;5077224;28;45486;-58
2023/01/01 10:02:36;;;;;;;;;11.25;5.00;;;;;14.87;61.95;101302.38;5061615;28;46021;-58
2023/01/01 10:05:05;;;;;;;;;8.75;8.25;;;;;14.87;61.84;101306.81;5061767;28;45197;-58
2023/01/01 10:07:40;;;;;;;;;6.50;5.75;;;;;14.88;61.59;101300.56;5061751;28;45397;-58
2023/01/01 10:10:24;;;;;;;;;9.00;6.50;;;;;14.81;62.11;101307.78;5061529;28;45440;-58
2023/01/01 10:13:21;;;;;;;;;9.00;6.25;;;;;14.84;62.22;101310.38;5076557;28;47151;-58
2023/01/01 10:16:12;;;;;;;;;5.50;5.25;;;;;14.82;61.82;101296.31;5061294;28;45425;-58
2023/01/01 10:18:41;;;;;;;;;6.00;6.00;;;;;14.90;61.84;101307.56;5037137;28;45405;-58
2023/01/01 10:21:16;;;;;;;;;7.50;6.75;;;;;14.88;61.63;101314.69;5061060;28;45296;-58
2023/01/01 10:23:51;;;;;;;;;7.00;7.00;;;;;14.95;61.78;101310.13;5061298;28;46292;-58
2023/01/01 10:26:20;;;;;;;;;9.50;7.00;;;;;14.91;61.74;101304.03;5047412;28;45600;-58
2023/01/01 10:29:01;;;;;;;;;7.25;4.75;;;;;14.91;61.65;101298.72;5061422;28;45354;-58
2023/01/01 10:31:33;;;;;;;;;4.25;4.25;;;;;14.92;62.05;101294.34;5061538;28;45709;-58
2023/01/01 10:34:16;;;;;;;;;8.50;6.00;;;;;14.92;62.00;101289.91;5061342;27;45410;-58
2023/01/01 10:36:44;;;;;;;;;5.50;5.50;;;;;14.88;61.86;101287.34;5061457;28;45203;-58
2023/01/01 10:39:15;;;;;;;;;7.00;7.00;;;;;14.84;61.80;101281.28;5061134;28;45355;-58
2023/01/01 10:41:42;;;;;;;;;12.50;9.50;;;;;14.85;61.61;101277.72;5060699;28;45280;-58
2023/01/01 10:44:09;;;;;;;;;11.75;9.25;;;;;14.83;62.12;101282.19;5060609;28;45261;-58
2023/01/01 10:46:39;;;;;;;;;7.50;7.50;;;;;14.86;62.06;101290.03;5060925;28;45232;-58
2023/01/01 10:49:10;;;;;;;;;9.25;9.00;;;;;14.87;62.00;101270.63;5061383;28;45402;-58
2023/01/01 10:51:42;;;;;;;;;9.25;7.50;;;;;14.88;62.03;101276.75;5060496;28;45428;-58
2023/01/01 10:54:38;;;;;;;;;7.00;5.25;;;;;14.87;62.15;101256.53;5060815;28;45409;-58
2023/01/01 10:57:34;;;;;;;;;7.75;7.75;;;;;14.84;61.84;101254.84;5075937;28;45795;-59
2023/01/01 11:00:22;;;;;;;;;4.75;4.75;;;;;14.81;62.45;101254.88;5035542;28;45618;-60
2023/01/01 11:03:13;;;;;;;;;6.50;5.00;;;;;14.82;62.19;101251.34;5060575;28;45508;-58
2023/01/01 11:05:39;;;;;;;;;7.50;6.00;;;;;14.81;61.88;101257.53;5060643;28;45305;-58
2023/01/01 11:08:17;;;;;;;;;8.25;5.75;;;;;14.78;62.38;101241.75;5060606;28;45256;-58
2023/01/01 11:10:50;;;;;;;;;8.25;7.25;;;;;14.70;62.82;101241.03;5060677;28;45334;-58
2023/01/01 11:13:18;;;;;;;;;9.25;7.75;;;;;14.66;62.77;101229.66;5058844;28;45273;-58
2023/01/01 11:15:44;;;;;;;;;7.25;6.75;;;;;14.67;62.86;101238.47;5060361;28;46326;-58
2023/01/01 11:18:34;;;;;;;;;2.50;2.50;;;;;14.60;62.35;101220.06;5060432;28;45338;-58
2023/01/01 11:21:02;;;;;;;;;8.75;7.00;;;;;14.67;62.92;101235.84;5059364;27;45269;-59
2023/01/01 11:23:34;;;;;;;;;7.75;7.75;;;;;14.66;63.20;101234.09;5060492;28;45552;-59
2023/01/01 11:26:12;;;;;;;;;7.25;6.00;;;;;14.69;62.69;101219.03;5047349;28;45396;-59
2023/01/01 11:28:38;;;;;;;;;7.25;5.00;;;;;14.72;62.30;101212.78;5060231;28;45280;-59
2023/01/01 11:31:04;;;;;;;;;10.00;7.75;;;;;14.66;62.68;101210.28;5060314;28;45525;-59
2023/01/01 11:33:34;;;;;;;;;9.50;7.50;;;;;14.59;62.68;101201.56;5060287;28;45295;-58
2023/01/01 11:36:00;;;;;;;;;7.75;6.00;;;;;14.59;62.98;101194.53;5075838;28;46981;-58
2023/01/01 11:38:26;;;;;;;;;8.75;6.00;;;;;14.52;62.93;101184.13;5060455;28;45437;-58